Time;durP1;ratioP1;P1;durP2;ratioP2;P2;SDS_P1;SDS_P2;PMS_P1;PMS_P2;Temp;Humidity;BMP_temperature;BMP_pressure;BME280_temperature;BME280_humidity;BME280_pressure;Samples;Min_cycle;Max_cycle;Signal;HPM_P1;HPM_P2
2021/06/23 00:02:07;;;;;;;;;;;;;;;21.39;100.00;99956.44;5092964;28;19911;-72
2021/06/23 00:04:32;;;;;;;;;;;;;;;21.51;100.00;99958.53;5075034;28;19912;-72
2021/06/23 00:06:57;;;;;;;;;;;;;;;21.46;100.00;99959.09;5092913;28;20353;-72
2021/06/23 00:09:23;;;;;;;;;;;;;;;21.51;100.00;99963.84;5093435;28;19912;-72
2021/06/23 00:11:50;;;;;;;;;;;;;;;21.48;100.00;99969.59;5091836;28;20341;-72
2021/06/23 00:14:16;;;;;;;;;;;;;;;21.61;100.00;99969.59;5092837;28;19912;-72
2021/06/23 00:16:41;;;;;;;;;;;;;;;21.58;100.00;99968.16;5092839;28;20349;-72
2021/06/23 00:19:07;;;;;;;;;;;;;;;21.64;100.00;99969.19;5092703;28;19952;-72
2021/06/23 00:21:32;;;;;;;;;;;;;;;21.69;100.00;99966.72;5092774;28;20367;-72
2021/06/23 00:23:58;;;;;;;;;;;;;;;21.48;100.00;99956.25;5092786;28;20337;-72
2021/06/23 00:26:23;;;;;;;;;;;;;;;21.30;100.00;99962.16;5075193;28;19912;-72
2021/06/23 00:28:48;;;;;;;;;;;;;;;21.21;100.00;99964.19;5092986;28;19945;-72
2021/06/23 00:31:14;;;;;;;;;;;;;;;21.17;100.00;99961.09;5092624;28;19976;-72
2021/06/23 00:33:40;;;;;;;;;;;;;;;21.07;100.00;99960.66;5092694;28;19923;-72
2021/06/23 00:36:06;;;;;;;;;;;;;;;20.94;100.00;99958.78;5092678;28;19912;-72
2021/06/23 00:38:31;;;;;;;;;;;;;;;21.05;100.00;99959.22;5092383;28;20401;-72
2021/06/23 00:40:56;;;;;;;;;;;;;;;21.13;100.00;99956.38;5092845;28;20322;-72
2021/06/23 00:43:23;;;;;;;;;;;;;;;21.09;100.00;99944.47;5092234;28;20368;-72
2021/06/23 00:45:48;;;;;;;;;;;;;;;21.12;100.00;99950.22;5074484;28;19916;-72
2021/06/23 00:48:21;;;;;;;;;;;;;;;21.22;100.00;99955.16;5092591;28;19948;-72
2021/06/23 00:50:46;;;;;;;;;;;;;;;21.33;100.00;99959.91;5092506;28;19912;-72
2021/06/23 00:53:12;;;;;;;;;;;;;;;21.39;100.00;99955.63;5092664;28;19919;-72
2021/06/23 00:55:38;;;;;;;;;;;;;;;21.21;100.00;99959.66;5092195;28;20443;-72
2021/06/23 00:58:04;;;;;;;;;;;;;;;21.04;100.00;99952.25;5092431;28;19935;-72
2021/06/23 01:00:31;;;;;;;;;;;;;;;20.90;100.00;99952.22;5092434;28;20044;-72
2021/06/23 01:02:57;;;;;;;;;;;;;;;20.95;100.00;99954.28;5092336;28;20394;-72
2021/06/23 01:05:23;;;;;;;;;;;;;;;20.95;100.00;99954.28;5092325;28;19969;-72
2021/06/23 01:07:49;;;;;;;;;;;;;;;21.09;100.00;99960.47;5092281;28;20004;-72
2021/06/23 01:10:14;;;;;;;;;;;;;;;21.13;100.00;99961.72;5092366;28;20379;-72
2021/06/23 01:12:45;;;;;;;;;;;;;;;21.06;100.00;99964.38;5092218;28;20363;-72
2021/06/23 01:15:12;;;;;;;;;;;;;;;21.11;100.00;99963.75;5092326;28;19912;-72
2021/06/23 01:17:37;;;;;;;;;;;;;;;21.26;100.00;99967.03;5092034;28;19915;-72
2021/06/23 01:20:10;;;;;;;;;;;;;;;21.19;100.00;99964.41;5091985;28;19949;-72
2021/06/23 01:22:37;;;;;;;;;;;;;;;21.13;100.00;99967.06;5092239;28;19912;-72
2021/06/23 01:25:03;;;;;;;;;;;;;;;21.01;100.00;99965.97;5095833;28;20428;-72
2021/06/23 01:27:28;;;;;;;;;;;;;;;20.88;100.00;99969.41;5095935;28;19912;-72
2021/06/23 01:29:53;;;;;;;;;;;;;;;20.69;100.00;99965.69;5096030;28;19923;-72
2021/06/23 01:32:19;;;;;;;;;;;;;;;20.40;100.00;99975.53;5095634;28;19916;-72
2021/06/23 01:34:44;;;;;;;;;;;;;;;20.36;100.00;99968.16;5095525;28;19912;-72
2021/06/23 01:37:10;;;;;;;;;;;;;;;20.37;100.00;99967.94;5095569;28;19920;-72
2021/06/23 01:39:35;;;;;;;;;;;;;;;20.38;100.00;99958.94;5095553;28;19912;-72
2021/06/23 01:42:00;;;;;;;;;;;;;;;20.42;100.00;99972.69;5095619;28;20302;-73
2021/06/23 01:44:27;;;;;;;;;;;;;;;20.31;100.00;99962.56;5095519;28;20369;-72
2021/06/23 01:46:52;;;;;;;;;;;;;;;20.30;100.00;99969.75;5095431;28;20340;-72
2021/06/23 01:49:21;;;;;;;;;;;;;;;20.33;100.00;99963.22;5095399;28;19912;-73
2021/06/23 01:51:47;;;;;;;;;;;;;;;20.32;100.00;99958.88;5095266;28;19919;-73
2021/06/23 01:54:12;;;;;;;;;;;;;;;20.24;100.00;99963.34;5095377;28;19912;-72
2021/06/23 01:56:37;;;;;;;;;;;;;;;20.11;100.00;99965.13;5095219;28;19912;-72
2021/06/23 01:59:03;;;;;;;;;;;;;;;19.97;100.00;99962.38;5094935;28;20466;-73
2021/06/23 02:01:28;;;;;;;;;;;;;;;19.94;100.00;99961.94;5094768;28;19946;-72
2021/06/23 02:03:56;;;;;;;;;;;;;;;19.98;100.00;99964.03;5095124;28;20057;-72
2021/06/23 02:06:40;;;;;;;;;;;;;;;20.01;100.00;99958.31;5094895;28;19912;-72
2021/06/23 02:09:09;;;;;;;;;;;;;;;20.04;100.00;99960.56;5094932;28;19911;-73
2021/06/23 02:11:47;;;;;;;;;;;;;;;20.09;100.00;99965.31;5094413;28;20429;-72
2021/06/23 02:14:28;;;;;;;;;;;;;;;20.18;100.00;99963.31;5095035;28;19915;-72
2021/06/23 02:16:54;;;;;;;;;;;;;;;20.19;100.00;99959.66;5094770;28;20003;-72
2021/06/23 02:19:19;;;;;;;;;;;;;;;20.24;100.00;99957.22;5095182;28;19912;-73
2021/06/23 02:21:44;;;;;;;;;;;;;;;20.28;100.00;99969.09;5094796;28;19970;-72
2021/06/23 02:24:10;;;;;;;;;;;;;;;20.23;100.00;99960.91;5094756;28;19951;-72
2021/06/23 02:26:36;;;;;;;;;;;;;;;20.27;100.00;99951.50;5094584;28;19934;-72
2021/06/23 02:29:05;;;;;;;;;;;;;;;20.28;100.00;99955.81;5094952;28;19916;-72
2021/06/23 02:31:31;;;;;;;;;;;;;;;20.31;100.00;99965.25;5094873;28;19920;-72
2021/06/23 02:33:56;;;;;;;;;;;;;;;20.39;100.00;99965.09;5094405;28;19919;-72
2021/06/23 02:36:22;;;;;;;;;;;;;;;20.50;100.00;99970.69;5093660;28;19912;-72
2021/06/23 02:38:47;;;;;;;;;;;;;;;20.52;100.00;99966.00;5094158;28;19918;-72
2021/06/23 02:41:13;;;;;;;;;;;;;;;20.49;100.00;99965.56;5094338;28;19912;-72
2021/06/23 02:43:39;;;;;;;;;;;;;;;20.47;100.00;99954.28;5094024;28;19923;-72
2021/06/23 02:46:04;;;;;;;;;;;;;;;20.27;100.00;99967.47;5094268;28;19977;-72
2021/06/23 02:48:29;;;;;;;;;;;;;;;20.19;100.00;99973.78;5094152;28;19916;-72
2021/06/23 02:51:04;;;;;;;;;;;;;;;20.11;100.00;99978.41;5094111;28;19912;-72
2021/06/23 02:53:29;;;;;;;;;;;;;;;20.19;100.00;99975.63;5093723;28;19916;-72
2021/06/23 02:55:56;;;;;;;;;;;;;;;20.30;100.00;99977.72;5094057;28;19915;-71
2021/06/23 02:58:21;;;;;;;;;;;;;;;20.39;100.00;99981.06;5075768;28;20375;-71
2021/06/23 03:00:46;;;;;;;;;;;;;;;20.42;100.00;99986.81;5094170;28;19918;-71
2021/06/23 03:03:12;;;;;;;;;;;;;;;20.47;100.00;99984.38;5094182;28;20294;-71
2021/06/23 03:05:37;;;;;;;;;;;;;;;20.49;100.00;99987.66;5093858;28;20299;-71
2021/06/23 03:08:02;;;;;;;;;;;;;;;20.39;100.00;99995.19;5094121;28;19980;-71
2021/06/23 03:10:28;;;;;;;;;;;;;;;20.34;100.00;100000.25;5093716;28;19912;-71
2021/06/23 03:12:53;;;;;;;;;;;;;;;20.19;100.00;100002.22;5093729;28;19912;-72
2021/06/23 03:15:18;;;;;;;;;;;;;;;20.05;100.00;100006.63;5093761;28;19912;-71
2021/06/23 03:17:44;;;;;;;;;;;;;;;19.91;100.00;100005.72;5093811;28;19919;-71
2021/06/23 03:20:10;;;;;;;;;;;;;;;19.99;100.00;100008.22;5094008;28;19939;-71
2021/06/23 03:22:35;;;;;;;;;;;;;;;19.99;100.00;100020.69;5093517;28;19911;-70
2021/06/23 03:25:00;;;;;;;;;;;;;;;20.04;100.00;100015.59;5093133;28;19918;-71
2021/06/23 03:27:26;;;;;;;;;;;;;;;19.99;100.00;100020.69;5093405;28;19916;-71
2021/06/23 03:29:51;;;;;;;;;;;;;;;20.00;100.00;100014.34;5093707;28;20347;-71
2021/06/23 03:32:16;;;;;;;;;;;;;;;20.00;100.00;100025.81;5093447;28;20418;-71
2021/06/23 03:34:41;;;;;;;;;;;;;;;20.09;100.00;100012.38;5093356;28;19920;-71
2021/06/23 03:37:07;;;;;;;;;;;;;;;20.05;100.00;100006.63;5093439;28;19912;-72
2021/06/23 03:39:33;;;;;;;;;;;;;;;20.06;100.00;100008.28;5093006;28;19912;-71
2021/06/23 03:41:58;;;;;;;;;;;;;;;20.23;100.00;100012.28;5091460;28;19924;-71
2021/06/23 03:44:24;;;;;;;;;;;;;;;20.36;100.00;100019.53;5093129;28;20344;-72
2021/06/23 03:46:49;;;;;;;;;;;;;;;20.43;100.00;100012.41;5092200;28;20025;-73
2021/06/23 03:49:14;;;;;;;;;;;;;;;20.54;100.00;100015.56;5075000;28;20337;-72
2021/06/23 03:51:40;;;;;;;;;;;;;;;20.60;100.00;100020.09;5093108;28;19919;-72
2021/06/23 03:54:05;;;;;;;;;;;;;;;20.79;100.00;100016.72;5092943;28;20378;-72
2021/06/23 03:56:31;;;;;;;;;;;;;;;21.09;100.00;100017.22;5092966;28;19912;-72
2021/06/23 03:58:56;;;;;;;;;;;;;;;21.34;100.00;100012.22;5093125;28;19912;-71
2021/06/23 04:01:21;;;;;;;;;;;;;;;21.56;100.00;100020.03;5092540;28;19973;-72
2021/06/23 04:03:47;;;;;;;;;;;;;;;21.71;100.00;100015.34;5092180;28;19935;-72
2021/06/23 04:06:12;;;;;;;;;;;;;;;21.95;100.00;100026.44;5092093;28;19912;-72
2021/06/23 04:08:37;;;;;;;;;;;;;;;22.11;100.00;100031.34;5092907;28;19916;-72
2021/06/23 04:11:03;;;;;;;;;;;;;;;22.33;100.00;100029.28;5093060;28;20006;-72
2021/06/23 04:13:28;;;;;;;;;;;;;;;22.54;100.00;100033.53;5092706;28;19918;-72
2021/06/23 04:15:53;;;;;;;;;;;;;;;22.75;100.00;100037.81;5092345;28;19912;-72
2021/06/23 04:18:19;;;;;;;;;;;;;;;22.97;100.00;100043.72;5090469;28;19916;-72
2021/06/23 04:20:44;;;;;;;;;;;;;;;23.15;100.00;100038.47;5090716;28;19912;-72
2021/06/23 04:23:09;;;;;;;;;;;;;;;23.36;100.00;100036.56;5090186;28;19916;-72
2021/06/23 04:25:35;;;;;;;;;;;;;;;23.54;100.00;100034.78;5089357;28;19974;-72
2021/06/23 04:28:00;;;;;;;;;;;;;;;23.71;100.00;100035.09;5088951;28;20378;-72
2021/06/23 04:30:26;;;;;;;;;;;;;;;23.88;100.00;100034.56;5089566;28;20374;-72
2021/06/23 04:32:51;;;;;;;;;;;;;;;23.99;100.00;100036.50;5090099;28;19916;-72
2021/06/23 04:35:16;;;;;;;;;;;;;;;24.26;100.00;100037.09;5090655;28;19924;-73
2021/06/23 04:37:42;;;;;;;;;;;;;;;24.41;100.00;100048.31;5090659;28;19912;-72
2021/06/23 04:40:10;;;;;;;;;;;;;;;24.64;100.00;100055.72;5090953;28;19941;-73
2021/06/23 04:42:35;;;;;;;;;;;;;;;24.73;100.00;100053.53;5091784;28;20375;-72
2021/06/23 04:45:01;;;;;;;;;;;;;;;24.95;100.00;100056.59;5091743;28;19926;-72
2021/06/23 04:47:26;;;;;;;;;;;;;;;25.17;100.00;100052.41;5091736;28;19916;-73
2021/06/23 04:49:52;;;;;;;;;;;;;;;25.41;100.00;100055.16;5091040;28;19920;-72
2021/06/23 04:52:17;;;;;;;;;;;;;;;25.57;100.00;100059.09;5091077;28;19918;-73
2021/06/23 04:54:42;;;;;;;;;;;;;;;25.79;100.00;100051.34;5090587;28;20006;-73
2021/06/23 04:57:08;;;;;;;;;;;;;;;26.00;100.00;100045.44;5091045;28;20312;-72
2021/06/23 04:59:33;;;;;;;;;;;;;;;26.16;100.00;100045.81;5093834;28;19978;-72
2021/06/23 05:01:58;;;;;;;;;;;;;;;25.38;100.00;100050.25;5094858;28;19912;-72
2021/06/23 05:04:24;;;;;;;;;;;;;;;25.17;100.00;100055.06;5095773;28;19974;-72
2021/06/23 05:06:49;;;;;;;;;;;;;;;25.56;100.00;100054.78;5096149;28;19930;-72
2021/06/23 05:09:14;;;;;;;;;;;;;;;25.39;100.00;100062.66;5095921;28;19911;-72
2021/06/23 05:11:40;;;;;;;;;;;;;;;25.51;100.00;100055.44;5095366;28;19920;-72
2021/06/23 05:14:06;;;;;;;;;;;;;;;25.68;100.00;100060.97;5095444;28;19946;-72
2021/06/23 05:16:32;;;;;;;;;;;;;;;25.64;100.00;100052.56;5094577;28;20392;-75
2021/06/23 05:18:58;;;;;;;;;;;;;;;25.67;100.00;100059.34;5095355;28;20003;-72
2021/06/23 05:21:23;;;;;;;;;;;;;;;25.61;100.00;100054.88;5095416;28;19916;-72
2021/06/23 05:23:48;;;;;;;;;;;;;;;25.72;100.00;100055.97;5095230;28;19916;-73
2021/06/23 05:26:14;;;;;;;;;;;;;;;25.52;100.00;100046.38;5095474;28;20337;-72
2021/06/23 05:28:39;;;;;;;;;;;;;;;25.40;100.00;100056.22;5094394;28;19920;-71
2021/06/23 05:31:05;;;;;;;;;;;;;;;25.16;100.00;100053.44;5095628;28;19916;-71
2021/06/23 05:33:30;;;;;;;;;;;;;;;24.95;100.00;100067.31;5095399;28;19922;-72
2021/06/23 05:35:56;;;;;;;;;;;;;;;25.05;100.00;100069.47;5095616;28;19912;-72
2021/06/23 05:38:21;;;;;;;;;;;;;;;25.22;100.00;100067.00;5076267;28;19976;-72
2021/06/23 05:40:46;;;;;;;;;;;;;;;25.56;100.00;100060.94;5094636;28;20295;-72
2021/06/23 05:43:12;;;;;;;;;;;;;;;25.37;100.00;100070.09;5094965;28;19923;-72
2021/06/23 05:45:38;;;;;;;;;;;;;;;25.38;100.00;100061.00;5094809;28;19916;-72
2021/06/23 05:48:04;;;;;;;;;;;;;;;25.49;100.00;100070.97;5094671;28;20390;-72
2021/06/23 05:50:29;;;;;;;;;;;;;;;25.40;100.00;100075.00;5094693;28;19965;-71
2021/06/23 05:52:55;;;;;;;;;;;;;;;25.50;100.00;100069.09;5095072;28;20397;-71
2021/06/23 05:55:23;;;;;;;;;;;;;;;25.59;100.00;100068.53;5094790;28;20406;-71
2021/06/23 05:57:55;;;;;;;;;;;;;;;26.11;100.00;100071.47;5095546;28;20298;-71
2021/06/23 06:00:21;;;;;;;;;;;;;;;26.25;100.00;100073.91;5095317;28;20405;-72
2021/06/23 06:02:47;;;;;;;;;;;;;;;26.58;100.00;100082.22;5094822;28;19916;-72
2021/06/23 06:05:12;;;;;;;;;;;;;;;26.79;100.00;100083.47;5094552;28;19923;-72
2021/06/23 06:07:38;;;;;;;;;;;;;;;26.79;100.00;100077.28;5095304;28;20402;-72
2021/06/23 06:10:03;;;;;;;;;;;;;;;26.82;100.00;100082.19;5093749;28;19931;-72
2021/06/23 06:12:28;;;;;;;;;;;;;;;27.29;100.00;100087.47;5094940;28;20295;-72
2021/06/23 06:14:54;;;;;;;;;;;;;;;27.70;100.00;100082.84;5094856;28;19912;-73
2021/06/23 06:17:20;;;;;;;;;;;;;;;28.14;100.00;100091.13;5094989;28;19916;-72
2021/06/23 06:19:45;;;;;;;;;;;;;;;28.40;100.00;100089.66;5094014;28;19931;-73
2021/06/23 06:22:11;;;;;;;;;;;;;;;28.72;100.00;100100.63;5094293;28;19915;-72
2021/06/23 06:24:36;;;;;;;;;;;;;;;28.90;100.00;100102.22;5094593;28;19923;-73
2021/06/23 06:27:01;;;;;;;;;;;;;;;29.07;100.00;100107.59;5094617;28;19950;-73
2021/06/23 06:29:27;;;;;;;;;;;;;;;29.34;100.00;100108.44;5094611;28;19963;-72
2021/06/23 06:31:52;;;;;;;;;;;;;;;29.54;100.00;100118.63;5094763;28;20011;-73
2021/06/23 06:34:17;;;;;;;;;;;;;;;29.66;100.00;100107.69;5094398;28;19918;-72
2021/06/23 06:36:43;;;;;;;;;;;;;;;29.85;100.00;100110.84;5094237;28;19912;-73
2021/06/23 06:39:08;;;;;;;;;;;;;;;29.98;100.00;100106.91;5094758;28;19961;-73
2021/06/23 06:41:34;;;;;;;;;;;;;;;30.11;100.00;100101.09;5094375;28;19912;-73
2021/06/23 06:43:59;;;;;;;;;;;;;;;30.08;100.00;100107.00;5094694;28;20010;-73
2021/06/23 06:46:25;;;;;;;;;;;;;;;30.29;100.00;100106.09;5094260;28;19960;-73
2021/06/23 06:48:51;;;;;;;;;;;;;;;30.40;100.00;100104.25;5094282;28;20356;-72
2021/06/23 06:51:16;;;;;;;;;;;;;;;30.60;100.00;100109.00;5094157;28;19934;-73
2021/06/23 06:53:41;;;;;;;;;;;;;;;30.88;100.00;100104.28;5094331;28;19912;-73
2021/06/23 06:56:06;;;;;;;;;;;;;;;31.00;100.00;100102.19;5094271;28;20299;-73
2021/06/23 06:58:32;;;;;;;;;;;;;;;30.83;100.00;100102.38;5093941;28;19961;-74
2021/06/23 07:00:57;;;;;;;;;;;;;;;31.14;100.00;100105.22;5093767;28;19951;-73
2021/06/23 07:03:22;;;;;;;;;;;;;;;31.36;100.00;100096.91;5094014;28;19961;-73
2021/06/23 07:05:48;;;;;;;;;;;;;;;31.60;100.00;100097.22;5093240;28;19973;-73
2021/06/23 07:08:13;;;;;;;;;;;;;;;31.76;100.00;100096.16;5093154;28;20376;-73
2021/06/23 07:10:38;;;;;;;;;;;;;;;31.63;100.00;100097.50;5093810;28;19911;-71
2021/06/23 07:13:04;;;;;;;;;;;;;;;31.79;100.00;100100.22;5092883;28;19916;-72
2021/06/23 07:15:29;;;;;;;;;;;;;;;31.70;100.00;100095.34;5092999;28;20029;-72
2021/06/23 07:17:54;;;;;;;;;;;;;;;32.07;100.00;100094.28;5092935;28;19962;-72
2021/06/23 07:20:20;;;;;;;;;;;;;;;31.91;100.00;100098.91;5093177;28;19973;-73
2021/06/23 07:22:45;;;;;;;;;;;;;;;32.10;100.00;100099.19;5092737;28;19916;-73
2021/06/23 07:25:11;;;;;;;;;;;;;;;32.33;100.00;100091.53;5093602;28;19919;-72
2021/06/23 07:27:36;;;;;;;;;;;;;;;32.73;100.00;100097.97;5093691;28;19915;-73
2021/06/23 07:30:02;;;;;;;;;;;;;;;32.96;100.00;100091.94;5093545;28;20341;-73
2021/06/23 07:32:35;;;;;;;;;;;;;;;33.18;100.00;100097.00;5093553;28;20014;-73
2021/06/23 07:37:44;;;;;;;;;;;;;;;33.33;100.00;100106.97;5092890;28;19922;-72
2021/06/23 07:40:10;;;;;;;;;;;;;;;32.78;100.00;100092.53;5092913;28;19920;-71
2021/06/23 07:42:35;;;;;;;;;;;;;;;33.00;100.00;100093.00;5091185;28;19965;-72
2021/06/23 07:45:03;;;;;;;;;;;;;;;33.14;100.00;100096.75;5091722;28;19919;-72
2021/06/23 07:47:32;;;;;;;;;;;;;;;33.46;100.00;100102.81;5089934;28;19966;-70
2021/06/23 07:49:58;;;;;;;;;;;;;;;33.48;100.00;100101.47;5075065;28;19916;-73
2021/06/23 07:55:10;;;;;;;;;;;;;;;33.72;100.00;100100.78;5093156;28;20014;-73
2021/06/23 08:08:10;;;;;;;;;;;;;;;34.55;100.00;100103.28;5093004;28;19925;-74
2021/06/23 08:08:52;;;;;;;;;;;;;;;34.10;76.05;100109.19;5093043;28;19919;-73
2021/06/23 08:13:43;;;;;;;;;;;;;;;34.24;74.92;100112.84;5091917;28;19923;-73
2021/06/23 08:16:09;;;;;;;;;;;;;;;34.17;72.18;100106.94;5091911;28;19912;-74
2021/06/23 08:18:34;;;;;;;;;;;;;;;34.24;75.42;100112.84;5091622;28;19924;-73
2021/06/23 08:20:59;;;;;;;;;;;;;;;34.38;74.27;100105.63;5092088;28;19912;-73
2021/06/23 08:23:25;;;;;;;;;;;;;;;34.72;75.21;100107.47;5091890;28;19943;-73
2021/06/23 08:25:50;;;;;;;;;;;;;;;34.85;72.52;100106.75;5092373;28;19970;-73
2021/06/23 08:28:15;;;;;;;;;;;;;;;34.82;72.24;100098.38;5091907;28;19922;-73
2021/06/23 08:30:41;;;;;;;;;;;;;;;34.47;72.80;100111.25;5091104;28;19949;-73
2021/06/23 08:33:06;;;;;;;;;;;;;;;34.73;71.56;100104.47;5092188;28;20375;-72
2021/06/23 08:35:32;;;;;;;;;;;;;;;35.09;76.38;100095.06;5095960;28;19912;-73
2021/06/23 08:37:57;;;;;;;;;;;;;;;35.37;72.28;100091.41;5096923;28;19919;-73
2021/06/23 08:40:23;;;;;;;;;;;;;;;35.47;71.26;100093.97;5096567;28;19916;-74
2021/06/23 08:42:49;;;;;;;;;;;;;;;35.29;61.18;100102.94;5096874;28;20006;-73
2021/06/23 08:45:14;;;;;;;;;;;;;;;35.57;63.83;100105.84;5096645;28;19966;-73
2021/06/23 08:47:44;;;;;;;;;;;;;;;35.43;61.60;100103.81;5078575;28;19916;-73
2021/06/23 08:50:10;;;;;;;;;;;;;;;35.59;66.21;100090.81;5096560;28;20291;-74
2021/06/23 08:52:35;;;;;;;;;;;;;;;35.58;64.87;100088.41;5096068;28;19919;-74
2021/06/23 08:55:01;;;;;;;;;;;;;;;35.77;63.44;100077.44;5096474;28;19912;-72
2021/06/23 08:57:26;;;;;;;;;;;;;;;35.82;62.86;100083.63;5096391;28;19912;-73
2021/06/23 08:59:51;;;;;;;;;;;;;;;35.88;60.54;100073.47;5096259;28;19912;-74
2021/06/23 09:02:17;;;;;;;;;;;;;;;35.78;63.23;100079.91;5096571;28;20305;-74
2021/06/23 09:04:59;;;;;;;;;;;;;;;35.64;60.96;100079.84;5078115;28;19912;-73
2021/06/23 09:07:43;;;;;;;;;;;;;;;35.72;61.26;100087.34;5096206;28;20362;-73
2021/06/23 09:10:28;;;;;;;;;;;;;;;36.15;60.71;100080.94;5096245;28;20340;-73
2021/06/23 09:13:00;;;;;;;;;;;;;;;36.05;59.45;100072.94;5096347;28;20389;-74
2021/06/23 09:15:40;;;;;;;;;;;;;;;36.06;62.37;100072.63;5096024;28;19912;-73
2021/06/23 09:18:09;;;;;;;;;;;;;;;36.27;66.44;100073.03;5096068;28;19911;-73
2021/06/23 09:20:36;;;;;;;;;;;;;;;36.56;60.67;100069.25;5097686;28;20031;-71
2021/06/23 09:23:01;;;;;;;;;;;;;;;36.66;56.61;100066.31;5092405;28;19923;-71
2021/06/23 09:25:27;;;;;;;;;;;;;;;36.67;53.38;100062.47;5075259;28;19912;-74
2021/06/23 09:27:54;;;;;;;;;;;;;;;36.71;52.20;100071.66;5075511;28;19922;-72
2021/06/23 09:30:31;;;;;;;;;;;;;;;36.82;56.48;100067.63;5075709;28;19923;-73
2021/06/23 09:33:11;;;;;;;;;;;;;;;36.78;52.67;100061.13;5086142;28;19919;-72
2021/06/23 09:35:38;;;;;;;;;;;;;;;36.93;53.50;100056.47;5094302;28;19958;-72
2021/06/23 09:38:03;;;;;;;;;;;;;;;36.40;53.73;100058.59;5095108;28;19969;-70
2021/06/23 09:40:30;;;;;;;;;;;;;;;36.78;55.18;100055.69;5095573;28;19991;-72
2021/06/23 09:43:02;;;;;;;;;;;;;;;36.35;53.38;100053.25;5094865;28;19920;-71
2021/06/23 09:45:29;;;;;;;;;;;;;;;36.67;55.81;100059.75;5094415;28;19923;-71
2021/06/23 09:48:02;;;;;;;;;;;;;;;37.03;56.84;100048.09;5094784;28;19912;-71
2021/06/23 09:50:28;;;;;;;;;;;;;;;36.70;49.42;100059.13;5092821;28;20536;-71
2021/06/23 09:53:01;;;;;;;;;;;;;;;36.82;49.78;100053.13;5093217;28;19916;-71
2021/06/23 09:55:53;;;;;;;;;;;;;;;36.49;47.76;100047.03;5092566;28;19923;-71
2021/06/23 09:58:20;;;;;;;;;;;;;;;36.01;50.44;100050.06;5085929;28;20015;-71
2021/06/23 10:00:59;;;;;;;;;;;;;;;36.05;54.55;100048.38;5093366;28;19919;-71
2021/06/23 10:03:25;;;;;;;;;;;;;;;36.21;48.34;100030.59;5092386;28;19918;-71
2021/06/23 10:05:51;;;;;;;;;;;;;;;35.98;48.38;100034.28;5094030;28;19916;-71
2021/06/23 10:08:20;;;;;;;;;;;;;;;35.91;51.87;100035.50;5093751;28;19919;-70
2021/06/23 10:10:46;;;;;;;;;;;;;;;36.26;49.54;100035.97;5094301;28;20306;-69
2021/06/23 10:13:11;;;;;;;;;;;;;;;36.36;50.08;100024.88;5093996;28;19916;-69
2021/06/23 10:15:37;;;;;;;;;;;;;;;36.79;47.98;100026.44;5094385;28;19912;-69
2021/06/23 10:18:02;;;;;;;;;;;;;;;36.94;48.74;100033.50;5094229;28;20371;-70
2021/06/23 10:20:28;;;;;;;;;;;;;;;36.85;50.00;100028.75;5094746;28;19919;-70
2021/06/23 10:22:53;;;;;;;;;;;;;;;36.02;48.83;100030.69;5094751;28;19919;-68
2021/06/23 10:25:19;;;;;;;;;;;;;;;35.82;51.65;100036.50;5094091;28;19923;-70
2021/06/23 10:27:45;;;;;;;;;;;;;;;35.88;50.96;100036.09;5075634;28;19916;-69
2021/06/23 10:30:11;;;;;;;;;;;;;;;35.67;51.33;100030.16;5094096;28;20410;-71
2021/06/23 10:32:37;;;;;;;;;;;;;;;35.92;50.84;100023.47;5076378;28;20024;-71
2021/06/23 10:35:02;;;;;;;;;;;;;;;36.12;51.16;100026.97;5094228;28;20375;-71
2021/06/23 10:37:28;;;;;;;;;;;;;;;36.12;53.05;100030.50;5094477;28;19947;-72
2021/06/23 10:39:55;;;;;;;;;;;;;;;35.81;52.57;100035.69;5093571;28;20329;-71
2021/06/23 10:42:21;;;;;;;;;;;;;;;35.49;52.34;100034.53;5093819;28;19920;-70
2021/06/23 10:44:53;;;;;;;;;;;;;;;35.45;53.59;100038.97;5092507;28;19998;-70
2021/06/23 10:47:29;;;;;;;;;;;;;;;35.46;53.36;100024.22;5090242;28;20766;-70
2021/06/23 10:49:54;;;;;;;;;;;;;;;35.19;52.42;100029.56;5092572;28;19912;-71
2021/06/23 10:52:20;;;;;;;;;;;;;;;34.80;52.40;100030.63;5092523;28;19915;-71
2021/06/23 10:55:05;;;;;;;;;;;;;;;34.48;53.28;100026.63;5092301;28;19915;-69
2021/06/23 10:57:33;;;;;;;;;;;;;;;34.48;53.42;100026.63;5091022;28;19916;-70
2021/06/23 11:00:21;;;;;;;;;;;;;;;34.11;53.63;100037.38;5089932;28;19912;-70
2021/06/23 11:02:58;;;;;;;;;;;;;;;33.95;54.24;100056.53;5091700;28;19918;-69
2021/06/23 11:05:31;;;;;;;;;;;;;;;33.69;52.79;100057.88;5093982;28;19969;-69
2021/06/23 11:07:58;;;;;;;;;;;;;;;33.94;55.37;100048.66;5093744;28;19916;-67
2021/06/23 11:10:28;;;;;;;;;;;;;;;34.15;55.27;100041.94;5093710;28;19916;-68
2021/06/23 11:12:54;;;;;;;;;;;;;;;34.10;54.62;100050.19;5075771;28;19912;-71
2021/06/23 11:15:20;;;;;;;;;;;;;;;33.83;53.34;100047.94;5093791;28;19969;-71
2021/06/23 11:17:47;;;;;;;;;;;;;;;33.92;56.36;100056.28;5074785;28;20383;-69
2021/06/23 11:20:18;;;;;;;;;;;;;;;33.94;54.60;100044.03;5073252;28;19959;-71
2021/06/23 11:22:43;;;;;;;;;;;;;;;34.01;53.42;100039.09;5091164;28;19919;-69
2021/06/23 11:25:24;;;;;;;;;;;;;;;33.88;52.95;100047.09;5091133;28;20014;-69
2021/06/23 11:28:07;;;;;;;;;;;;;;;33.81;55.24;100044.69;5091398;28;19916;-69
2021/06/23 11:30:33;;;;;;;;;;;;;;;34.05;55.25;100039.34;5091449;28;20405;-70
2021/06/23 11:33:18;;;;;;;;;;;;;;;34.12;55.32;100033.56;5091733;28;20002;-71
2021/06/23 11:35:44;;;;;;;;;;;;;;;34.21;52.22;100040.00;5093317;28;19918;-70
2021/06/23 11:38:09;;;;;;;;;;;;;;;34.24;53.41;100034.00;5093229;28;19912;-72
2021/06/23 11:40:34;;;;;;;;;;;;;;;34.14;51.65;100021.31;5093305;28;20371;-71
2021/06/23 11:43:01;;;;;;;;;;;;;;;34.27;51.39;100019.81;5093021;28;19970;-74
2021/06/23 11:45:26;;;;;;;;;;;;;;;34.33;52.90;100013.22;5092899;28;19999;-70
2021/06/23 11:47:52;;;;;;;;;;;;;;;34.30;51.55;100013.81;5093209;28;20365;-71
2021/06/23 11:50:17;;;;;;;;;;;;;;;34.54;53.66;100014.63;5093098;28;19911;-71
2021/06/23 11:52:43;;;;;;;;;;;;;;;34.62;52.21;100023.25;5093132;28;20008;-71
2021/06/23 11:55:09;;;;;;;;;;;;;;;34.31;53.05;100020.84;5092931;28;19946;-73
2021/06/23 11:57:35;;;;;;;;;;;;;;;34.19;52.73;100020.44;5074656;28;19970;-71
2021/06/23 12:00:00;;;;;;;;;;;;;;;34.23;52.24;100014.16;5093294;28;19916;-72
2021/06/23 12:02:27;;;;;;;;;;;;;;;34.13;51.65;100025.13;5093360;28;19935;-72
2021/06/23 12:04:52;;;;;;;;;;;;;;;34.17;52.45;100022.66;5092984;28;19916;-73
2021/06/23 12:07:17;;;;;;;;;;;;;;;34.02;51.08;100020.88;5093060;28;20012;-73
2021/06/23 12:09:43;;;;;;;;;;;;;;;34.21;51.89;100027.22;5092921;28;20362;-71
2021/06/23 12:12:08;;;;;;;;;;;;;;;34.12;52.22;100019.97;5093144;28;19919;-71
2021/06/23 12:14:33;;;;;;;;;;;;;;;34.31;52.03;100010.78;5093239;28;19912;-70
2021/06/23 12:16:59;;;;;;;;;;;;;;;34.43;50.34;100010.38;5074785;28;19912;-74
2021/06/23 12:19:24;;;;;;;;;;;;;;;34.47;46.88;100019.59;5093067;28;19968;-71
2021/06/23 12:21:49;;;;;;;;;;;;;;;34.54;48.64;100016.53;5092833;28;20022;-70
2021/06/23 12:24:14;;;;;;;;;;;;;;;34.65;49.53;100015.31;5092751;28;20310;-71
2021/06/23 12:26:40;;;;;;;;;;;;;;;34.81;51.60;100017.84;5092753;28;20587;-73
2021/06/23 12:29:05;;;;;;;;;;;;;;;34.44;50.47;100025.59;5092888;28;19916;-69
2021/06/23 12:31:31;;;;;;;;;;;;;;;34.54;52.04;100020.06;5092815;28;19916;-69
2021/06/23 12:33:56;;;;;;;;;;;;;;;34.54;52.34;100027.41;5092610;28;19961;-70
2021/06/23 12:36:21;;;;;;;;;;;;;;;34.55;52.42;100029.84;5092668;28;19912;-71
2021/06/23 12:38:47;;;;;;;;;;;;;;;34.63;52.82;100028.41;5092680;28;19912;-70
2021/06/23 12:41:12;;;;;;;;;;;;;;;34.83;52.46;100026.50;5092543;28;20303;-70
2021/06/23 12:43:37;;;;;;;;;;;;;;;34.87;49.33;100020.19;5092179;28;20373;-70
2021/06/23 12:46:03;;;;;;;;;;;;;;;34.89;50.08;100026.13;5092942;28;19916;-70
2021/06/23 12:48:37;;;;;;;;;;;;;;;34.84;50.56;100023.50;5092659;28;19944;-72